Time;durP1;ratioP1;P1;durP2;ratioP2;P2;SDS_P1;SDS_P2;PMS_P1;PMS_P2;Temp;Humidity;BMP_temperature;BMP_pressure;BME280_temperature;BME280_humidity;BME280_pressure;Samples;Min_cycle;Max_cycle;Signal;HPM_P1;HPM_P2
2020/12/12 00:00:13;;;;;;;12.97;11.67;;;4.40;92.00;;;;;;5003337;28;20748;-92
2020/12/12 00:02:39;;;;;;;13.13;11.93;;;4.50;92.00;;;;;;5003657;28;20205;-91
2020/12/12 00:05:05;;;;;;;14.17;11.90;;;4.60;91.50;;;;;;5004775;28;20687;-91
2020/12/12 00:07:31;;;;;;;12.63;11.47;;;4.50;91.50;;;;;;5004848;28;20290;-91
2020/12/12 00:09:57;;;;;;;13.23;11.90;;;4.50;91.30;;;;;;5005717;28;20245;-91
2020/12/12 00:12:23;;;;;;;13.10;11.83;;;4.60;92.20;;;;;;5003533;28;20202;-91
2020/12/12 00:14:49;;;;;;;13.57;12.27;;;4.60;92.60;;;;;;5004853;28;20183;-91
2020/12/12 00:17:14;;;;;;;12.83;11.17;;;4.60;92.90;;;;;;5005055;28;20213;-91
2020/12/12 00:19:40;;;;;;;12.87;11.00;;;4.50;92.40;;;;;;5004625;28;20185;-91
2020/12/12 00:22:06;;;;;;;11.83;10.63;;;4.50;93.00;;;;;;5019773;28;20237;-90
2020/12/12 00:24:31;;;;;;;12.43;11.23;;;4.50;93.10;;;;;;5002565;28;20234;-91
2020/12/12 00:26:58;;;;;;;14.00;12.43;;;4.50;92.50;;;;;;4998493;28;20232;-92
2020/12/12 00:29:24;;;;;;;12.27;11.00;;;4.50;92.40;;;;;;5001501;28;20221;-91
2020/12/12 00:31:57;;;;;;;12.73;11.57;;;4.40;93.00;;;;;;4999515;28;20305;-91
2020/12/12 00:34:27;;;;;;;12.50;11.20;;;4.40;93.30;;;;;;5001427;28;20181;-90
2020/12/12 00:36:54;;;;;;;12.17;11.03;;;4.50;92.90;;;;;;5001983;28;20277;-91
2020/12/12 00:39:21;;;;;;;11.77;10.67;;;4.50;92.70;;;;;;5000732;28;20224;-91
2020/12/12 00:41:47;;;;;;;11.93;10.73;;;4.50;92.70;;;;;;5018114;28;20356;-91
2020/12/12 00:44:15;;;;;;;12.50;11.30;;;4.50;92.40;;;;;;5020719;28;20197;-90
2020/12/12 00:46:41;;;;;;;13.00;11.70;;;4.50;93.10;;;;;;5004183;28;20654;-91
2020/12/12 00:49:07;;;;;;;14.20;12.27;;;4.40;93.80;;;;;;5004477;28;20210;-91
2020/12/12 00:51:33;;;;;;;12.30;11.17;;;4.40;93.60;;;;;;5004872;28;20195;-91
2020/12/12 00:53:59;;;;;;;12.40;11.23;;;4.60;92.90;;;;;;5020129;28;20188;-91
2020/12/12 00:56:25;;;;;;;13.63;12.27;;;4.60;92.70;;;;;;5003968;28;20186;-91
2020/12/12 00:58:51;;;;;;;13.97;12.57;;;4.70;93.40;;;;;;5004454;28;20672;-92
2020/12/12 01:01:17;;;;;;;13.03;11.73;;;4.70;93.20;;;;;;5019925;28;20360;-91
2020/12/12 01:03:44;;;;;;;12.57;11.37;;;4.60;93.60;;;;;;5003019;28;20186;-91
2020/12/12 01:06:11;;;;;;;11.80;10.70;;;4.50;93.40;;;;;;5004571;28;20666;-92
2020/12/12 01:08:37;;;;;;;12.27;11.17;;;4.40;93.60;;;;;;5020513;28;20226;-91
2020/12/12 01:11:04;;;;;;;14.93;13.43;;;4.40;94.10;;;;;;5005247;28;20205;-90
2020/12/12 01:13:30;;;;;;;12.30;10.97;;;4.60;94.30;;;;;;5005982;28;20232;-92
2020/12/12 01:15:56;;;;;;;12.90;11.60;;;4.60;94.00;;;;;;5019826;28;20182;-91
2020/12/12 01:18:22;;;;;;;12.70;11.50;;;4.70;93.50;;;;;;5004383;28;20202;-92
2020/12/12 01:20:48;;;;;;;11.97;10.83;;;4.60;93.60;;;;;;5019711;28;20202;-91
2020/12/12 01:23:13;;;;;;;13.67;12.23;;;4.70;93.40;;;;;;4987077;28;20205;-91
2020/12/12 01:25:40;;;;;;;13.37;12.07;;;4.70;93.60;;;;;;5018898;28;20217;-91
2020/12/12 01:28:06;;;;;;;12.40;11.13;;;4.70;93.40;;;;;;5019363;28;20230;-91
2020/12/12 01:30:35;;;;;;;12.77;11.57;;;4.70;93.60;;;;;;5004977;28;20614;-91
2020/12/12 01:33:02;;;;;;;11.60;10.50;;;4.70;93.60;;;;;;5006798;28;20254;-92
2020/12/12 01:35:28;;;;;;;11.93;10.83;;;4.70;93.00;;;;;;5007322;28;20234;-91
2020/12/12 01:37:53;;;;;;;13.10;11.80;;;4.70;92.90;;;;;;5012480;28;20237;-90
2020/12/12 01:40:19;;;;;;;14.17;12.77;;;4.60;93.70;;;;;;5016380;28;20197;-88
2020/12/12 01:42:45;;;;;;;13.03;11.73;;;4.70;93.30;;;;;;5032927;28;20225;-89
2020/12/12 01:45:11;;;;;;;16.30;14.63;;;4.70;93.10;;;;;;5011339;28;20166;-90
2020/12/12 01:47:38;;;;;;;15.23;13.63;;;4.70;94.80;;;;;;5015700;28;20205;-90
2020/12/12 01:50:07;;;;;;;14.00;12.70;;;4.50;96.30;;;;;;5018430;28;20343;-91
2020/12/12 01:52:34;;;;;;;13.97;12.67;;;4.60;95.90;;;;;;5012036;28;20208;-92
2020/12/12 01:55:00;;;;;;;15.00;13.47;;;4.60;95.50;;;;;;5011448;28;20182;-91
2020/12/12 01:57:26;;;;;;;13.13;11.90;;;4.60;96.10;;;;;;5010064;28;20182;-91
2020/12/12 01:59:52;;;;;;;14.20;12.80;;;4.60;95.30;;;;;;5009546;28;20179;-92
2020/12/12 02:02:22;;;;;;;14.77;13.27;;;4.60;96.30;;;;;;5009086;28;20212;-91
2020/12/12 02:04:58;;;;;;;14.03;12.53;;;4.60;96.60;;;;;;5009720;28;20177;-91
2020/12/12 02:07:24;;;;;;;13.87;12.47;;;4.60;96.00;;;;;;5010062;28;20257;-91
2020/12/12 02:09:50;;;;;;;12.57;11.33;;;4.60;96.10;;;;;;5010253;28;20176;-93
2020/12/12 02:12:17;;;;;;;12.33;11.00;;;4.50;95.80;;;;;;5025675;28;20208;-91
2020/12/12 02:14:43;;;;;;;14.20;12.70;;;4.40;96.70;;;;;;5010564;28;20179;-91
2020/12/12 02:17:11;;;;;;;11.77;10.77;;;4.50;96.10;;;;;;5008647;28;20195;-91
2020/12/12 02:19:37;;;;;;;13.33;11.93;;;4.50;96.20;;;;;;5009601;28;20178;-92
2020/12/12 02:22:05;;;;;;;12.97;11.73;;;4.60;95.10;;;;;;5008584;28;20282;-91
2020/12/12 02:24:33;;;;;;;12.60;11.40;;;4.50;95.00;;;;;;5009550;28;20182;-91
2020/12/12 02:27:01;;;;;;;13.03;11.73;;;4.60;94.50;;;;;;5008822;28;20185;-91
2020/12/12 02:29:39;;;;;;;13.33;12.03;;;4.60;94.20;;;;;;5008065;28;20243;-91
2020/12/12 02:32:05;;;;;;;14.37;12.63;;;4.80;94.70;;;;;;4989745;28;20218;-92
2020/12/12 02:34:31;;;;;;;14.57;13.17;;;4.70;94.90;;;;;;4989132;28;20187;-92
2020/12/12 02:36:57;;;;;;;13.87;12.43;;;4.80;95.50;;;;;;4988542;28;20201;-92
2020/12/12 02:39:23;;;;;;;14.00;12.60;;;4.60;96.50;;;;;;4989209;28;20197;-91
2020/12/12 02:41:48;;;;;;;12.70;11.47;;;4.50;97.00;;;;;;4990404;28;20202;-92
2020/12/12 02:44:14;;;;;;;12.63;11.53;;;4.60;96.60;;;;;;4989258;28;20605;-92
2020/12/12 02:46:40;;;;;;;12.20;11.00;;;4.70;95.50;;;;;;4989180;28;20187;-91
2020/12/12 02:49:06;;;;;;;12.27;10.93;;;4.60;95.10;;;;;;4988307;28;20287;-92
2020/12/12 02:51:32;;;;;;;13.13;11.93;;;4.70;94.80;;;;;;4972573;28;20215;-91
2020/12/12 02:53:57;;;;;;;13.27;11.90;;;4.80;95.50;;;;;;4988283;28;20210;-92
2020/12/12 02:56:24;;;;;;;12.77;11.53;;;4.90;95.30;;;;;;4972862;28;20211;-92
2020/12/12 02:58:50;;;;;;;14.07;12.77;;;4.80;94.80;;;;;;4989838;28;20186;-92
2020/12/12 03:01:16;;;;;;;12.53;11.37;;;4.80;95.40;;;;;;4989082;28;20210;-92
2020/12/12 03:03:42;;;;;;;11.80;10.70;;;4.80;95.00;;;;;;4990105;28;20222;-92
2020/12/12 03:06:07;;;;;;;11.53;10.33;;;4.70;95.30;;;;;;4988219;28;20661;-91
2020/12/12 03:08:33;;;;;;;11.17;10.07;;;4.60;95.00;;;;;;4972516;28;20211;-92
2020/12/12 03:10:59;;;;;;;12.70;11.40;;;4.60;95.50;;;;;;4957051;28;20235;-92
2020/12/12 03:13:25;;;;;;;12.23;11.03;;;4.60;96.10;;;;;;4989844;28;20189;-91
2020/12/12 03:15:50;;;;;;;12.17;11.07;;;4.60;95.80;;;;;;4989401;28;20241;-91
2020/12/12 03:18:16;;;;;;;11.27;10.17;;;4.60;95.40;;;;;;4956873;28;20282;-91
2020/12/12 03:20:42;;;;;;;10.50;9.57;;;4.60;95.20;;;;;;4990106;28;20195;-91
2020/12/12 03:23:08;;;;;;;11.47;10.47;;;4.70;94.70;;;;;;4990022;28;20214;-91
2020/12/12 03:25:34;;;;;;;12.70;11.50;;;4.70;95.10;;;;;;4985628;28;20238;-92
2020/12/12 03:27:59;;;;;;;11.90;10.80;;;4.80;94.90;;;;;;4983300;28;20207;-91
2020/12/12 03:30:25;;;;;;;12.03;11.03;;;4.80;94.70;;;;;;4985126;28;20574;-90
2020/12/12 03:32:51;;;;;;;13.10;11.90;;;4.90;94.30;;;;;;4984876;28;20210;-91
2020/12/12 03:35:16;;;;;;;13.13;11.93;;;4.70;95.10;;;;;;4966613;28;20293;-91
2020/12/12 03:37:42;;;;;;;12.13;11.00;;;4.60;95.40;;;;;;4983972;28;20281;-91
2020/12/12 03:40:08;;;;;;;12.30;11.10;;;4.60;95.20;;;;;;4966634;28;20195;-92
2020/12/12 03:42:34;;;;;;;10.77;9.77;;;4.60;94.70;;;;;;4982660;28;20207;-91
2020/12/12 03:44:59;;;;;;;12.17;11.07;;;4.60;94.50;;;;;;4983109;28;20210;-89
2020/12/12 03:47:25;;;;;;;12.07;10.97;;;4.70;94.60;;;;;;4983993;28;20243;-90
2020/12/12 03:49:51;;;;;;;12.00;10.90;;;4.70;93.90;;;;;;4967806;28;20179;-92
2020/12/12 03:52:17;;;;;;;14.67;13.27;;;4.80;93.60;;;;;;4983249;28;20199;-92
2020/12/12 03:54:43;;;;;;;12.40;11.30;;;4.80;94.20;;;;;;4982572;28;20298;-92
2020/12/12 03:57:09;;;;;;;13.27;11.97;;;4.90;94.10;;;;;;4983939;28;20723;-91
2020/12/12 03:59:34;;;;;;;13.73;12.53;;;4.90;95.20;;;;;;4968200;28;20264;-91
2020/12/12 04:02:00;;;;;;;13.33;11.67;;;4.90;94.60;;;;;;4966193;28;20285;-91
2020/12/12 04:04:26;;;;;;;11.93;10.83;;;4.90;94.80;;;;;;4983507;28;20194;-90
2020/12/12 04:06:52;;;;;;;12.47;11.27;;;4.80;94.90;;;;;;4966463;28;20274;-92
2020/12/12 04:09:18;;;;;;;12.43;11.10;;;4.70;94.80;;;;;;4967014;28;20304;-92
2020/12/12 04:11:43;;;;;;;11.57;10.57;;;4.80;94.90;;;;;;4981831;28;20342;-92
2020/12/12 04:14:09;;;;;;;13.33;12.03;;;4.70;94.20;;;;;;4983225;28;20226;-91
2020/12/12 04:16:35;;;;;;;11.33;10.30;;;4.60;96.10;;;;;;4996739;28;20226;-90
2020/12/12 04:19:00;;;;;;;11.73;10.53;;;4.70;95.20;;;;;;4960398;28;20187;-92
2020/12/12 04:21:26;;;;;;;11.93;10.83;;;4.60;94.60;;;;;;4984869;28;20211;-92
2020/12/12 04:23:52;;;;;;;11.43;10.47;;;4.60;95.90;;;;;;4991467;28;20187;-90
2020/12/12 04:26:18;;;;;;;12.50;11.23;;;4.80;94.40;;;;;;4998628;28;20195;-90
2020/12/12 04:28:44;;;;;;;10.97;9.97;;;4.80;93.90;;;;;;4990602;28;20364;-92
2020/12/12 04:31:10;;;;;;;11.97;10.80;;;4.80;94.00;;;;;;4983138;28;20199;-91
2020/12/12 04:33:36;;;;;;;11.90;10.70;;;4.80;93.90;;;;;;4984313;28;20186;-92
2020/12/12 04:36:03;;;;;;;11.90;10.80;;;4.70;93.90;;;;;;4984500;28;20175;-91
2020/12/12 04:38:31;;;;;;;12.43;11.23;;;4.70;94.50;;;;;;4983987;28;20174;-91
2020/12/12 04:40:58;;;;;;;12.57;11.27;;;4.80;94.70;;;;;;4983204;28;20183;-92
2020/12/12 04:43:26;;;;;;;11.97;10.87;;;4.80;94.80;;;;;;4984489;28;20182;-90
2020/12/12 04:45:52;;;;;;;14.90;13.37;;;4.80;95.70;;;;;;4982888;28;20281;-91
2020/12/12 04:48:18;;;;;;;11.73;10.63;;;4.80;96.20;;;;;;4983820;28;20246;-91
2020/12/12 04:50:45;;;;;;;12.37;11.20;;;4.80;95.30;;;;;;4984110;28;20257;-90
2020/12/12 04:53:24;;;;;;;13.17;11.90;;;4.80;95.10;;;;;;4982671;28;20175;-91
2020/12/12 04:55:51;;;;;;;12.27;10.97;;;4.70;97.20;;;;;;4982203;28;20246;-91
2020/12/12 04:58:23;;;;;;;13.20;11.90;;;4.60;96.70;;;;;;4982145;28;20182;-90
2020/12/12 05:00:50;;;;;;;13.30;12.00;;;4.70;96.80;;;;;;4984309;28;20222;-90
2020/12/12 05:03:19;;;;;;;11.97;10.87;;;4.60;97.70;;;;;;4984013;28;20179;-90
2020/12/12 05:05:46;;;;;;;12.27;11.17;;;4.80;97.10;;;;;;4967696;28;20242;-90
2020/12/12 05:08:12;;;;;;;12.43;11.33;;;4.90;96.20;;;;;;4984288;28;20203;-90
2020/12/12 05:10:46;;;;;;;12.60;11.27;;;4.70;96.70;;;;;;4967315;28;20187;-90
2020/12/12 05:13:33;;;;;;;12.83;11.73;;;4.70;97.00;;;;;;4984188;28;20634;-90
2020/12/12 05:15:59;;;;;;;10.77;9.77;;;4.80;96.80;;;;;;4969575;28;20188;-90
2020/12/12 05:18:25;;;;;;;11.83;10.53;;;4.80;95.60;;;;;;4982741;28;20211;-89
2020/12/12 05:20:51;;;;;;;10.50;9.50;;;4.80;96.00;;;;;;4983444;28;20194;-91
2020/12/12 05:23:21;;;;;;;12.07;10.87;;;4.80;95.80;;;;;;4984003;28;20242;-92
2020/12/12 05:25:49;;;;;;;12.13;11.03;;;4.80;95.10;;;;;;4987093;28;20179;-90
2020/12/12 05:28:16;;;;;;;11.83;10.80;;;4.80;95.00;;;;;;4987595;28;20218;-91
2020/12/12 05:30:44;;;;;;;11.97;10.57;;;4.70;95.80;;;;;;4986555;28;20187;-92
2020/12/12 05:33:15;;;;;;;11.40;10.43;;;4.80;94.90;;;;;;4987638;28;20214;-90
2020/12/12 05:35:41;;;;;;;11.63;10.53;;;4.80;95.20;;;;;;4986048;28;20167;-91
2020/12/12 05:38:11;;;;;;;10.93;9.83;;;4.80;96.10;;;;;;4986752;28;20207;-90
2020/12/12 05:40:39;;;;;;;11.90;10.70;;;4.80;95.00;;;;;;4986437;28;20182;-90
2020/12/12 05:43:09;;;;;;;9.80;8.87;;;4.80;94.60;;;;;;4987745;28;20206;-91
2020/12/12 05:45:36;;;;;;;11.27;10.17;;;4.90;94.80;;;;;;4988066;28;20171;-90
2020/12/12 05:48:03;;;;;;;10.83;9.83;;;4.80;94.40;;;;;;4988105;28;20229;-91
2020/12/12 05:50:29;;;;;;;10.57;9.57;;;4.90;94.20;;;;;;4988180;28;20175;-90
2020/12/12 05:52:56;;;;;;;10.30;9.40;;;4.90;94.80;;;;;;4970944;28;20282;-90
2020/12/12 05:55:33;;;;;;;11.07;9.17;;;4.90;94.90;;;;;;4988133;28;20180;-90
2020/12/12 05:57:59;;;;;;;11.00;9.93;;;5.00;96.90;;;;;;4990076;28;20182;-91
2020/12/12 06:00:26;;;;;;;10.17;8.83;;;5.00;96.30;;;;;;4970640;28;20191;-91
2020/12/12 06:02:59;;;;;;;10.23;9.30;;;5.00;97.00;;;;;;4985800;28;20203;-91
2020/12/12 06:05:27;;;;;;;10.17;9.17;;;5.10;97.10;;;;;;4970313;28;20197;-91
2020/12/12 06:07:58;;;;;;;10.00;9.00;;;4.90;98.00;;;;;;4986144;28;20218;-91
2020/12/12 06:10:29;;;;;;;9.83;9.03;;;4.90;98.40;;;;;;4986460;28;20254;-91
2020/12/12 06:13:03;;;;;;;9.70;8.80;;;4.90;99.30;;;;;;4985542;28;20203;-91
2020/12/12 06:15:40;;;;;;;10.90;9.80;;;4.90;98.80;;;;;;4987453;28;20174;-91
2020/12/12 06:18:31;;;;;;;10.33;9.33;;;4.90;98.10;;;;;;4989272;28;20198;-91
2020/12/12 06:21:02;;;;;;;9.37;8.57;;;5.00;97.70;;;;;;4991380;28;20184;-89
2020/12/12 06:23:30;;;;;;;10.13;9.23;;;4.90;97.90;;;;;;4989109;28;20166;-91
2020/12/12 06:25:56;;;;;;;10.73;9.73;;;5.00;97.30;;;;;;4969839;28;20191;-90
2020/12/12 06:28:26;;;;;;;9.80;8.60;;;5.00;97.30;;;;;;4985450;28;20215;-91
2020/12/12 06:30:56;;;;;;;10.87;9.87;;;4.90;97.20;;;;;;4986199;28;20202;-89
2020/12/12 06:33:22;;;;;;;10.90;9.90;;;5.00;97.00;;;;;;4986416;28;20546;-92
2020/12/12 06:35:48;;;;;;;10.60;9.57;;;5.00;96.80;;;;;;4988245;28;20183;-90
2020/12/12 06:38:26;;;;;;;11.60;10.50;;;5.00;97.20;;;;;;4989256;28;20171;-90
2020/12/12 06:41:02;;;;;;;9.63;8.83;;;5.00;97.30;;;;;;4971157;28;20262;-91
2020/12/12 06:43:33;;;;;;;9.57;8.50;;;5.10;96.60;;;;;;4987277;28;20190;-91
2020/12/12 06:46:01;;;;;;;10.70;9.33;;;5.00;96.30;;;;;;4985888;28;20623;-89
2020/12/12 06:48:28;;;;;;;10.60;9.60;;;5.00;96.20;;;;;;4986171;28;20218;-89
2020/12/12 06:50:55;;;;;;;10.57;9.53;;;5.00;96.80;;;;;;4953727;28;20270;-90
2020/12/12 06:53:25;;;;;;;10.13;9.23;;;5.10;97.00;;;;;;4994406;28;20249;-89
2020/12/12 06:56:21;;;;;;;10.77;9.77;;;5.10;97.20;;;;;;4997582;28;20175;-90
2020/12/12 06:58:46;;;;;;;11.67;10.57;;;5.10;96.90;;;;;;4978479;28;20225;-90
2020/12/12 07:01:29;;;;;;;10.33;9.33;;;5.10;97.50;;;;;;4976221;28;20183;-88
2020/12/12 07:03:56;;;;;;;10.40;9.50;;;5.10;97.20;;;;;;5000167;28;20171;-89
2020/12/12 07:06:30;;;;;;;10.20;9.30;;;5.20;96.90;;;;;;4992949;28;20183;-90
2020/12/12 07:09:06;;;;;;;9.53;8.47;;;5.20;97.50;;;;;;4988158;28;20203;-89
2020/12/12 07:11:31;;;;;;;10.77;9.67;;;5.20;96.70;;;;;;4988328;28;20287;-91
2020/12/12 07:13:59;;;;;;;9.57;8.70;;;5.10;96.80;;;;;;4987892;28;20218;-91
2020/12/12 07:16:25;;;;;;;12.93;10.00;;;5.00;97.20;;;;;;4987283;28;20171;-90
2020/12/12 07:18:51;;;;;;;12.73;8.23;;;5.00;96.90;;;;;;4984365;28;20233;-90
2020/12/12 07:21:18;;;;;;;11.23;10.13;;;5.00;96.60;;;;;;4985595;28;20709;-90
2020/12/12 07:23:45;;;;;;;11.47;10.33;;;4.90;99.40;;;;;;4995863;28;20320;-85
2020/12/12 07:26:10;;;;;;;9.80;8.90;;;4.90;99.40;;;;;;4997410;28;20210;-85
2020/12/12 07:28:37;;;;;;;9.30;8.50;;;4.90;99.40;;;;;;4987457;28;20266;-86
2020/12/12 07:31:03;;;;;;;10.67;9.67;;;5.00;97.70;;;;;;5002113;28;20203;-84
2020/12/12 07:33:29;;;;;;;11.37;9.63;;;5.10;98.10;;;;;;4999496;28;20209;-85
2020/12/12 07:35:56;;;;;;;10.53;9.53;;;5.10;97.40;;;;;;4993611;28;20190;-87
2020/12/12 07:38:22;;;;;;;10.37;9.37;;;5.00;97.80;;;;;;5003275;28;20199;-85
2020/12/12 07:40:48;;;;;;;9.47;8.57;;;5.00;97.90;;;;;;4991082;28;20202;-86
2020/12/12 07:43:14;;;;;;;10.80;9.70;;;5.10;97.50;;;;;;5007281;28;20273;-91
2020/12/12 07:48:18;;;;;;;9.90;8.90;;;5.10;96.90;;;;;;4996847;28;20218;-91
2020/12/12 07:50:43;;;;;;;10.50;9.33;;;5.20;96.40;;;;;;4986724;28;20179;-91
2020/12/12 07:53:14;;;;;;;10.20;9.30;;;5.30;96.70;;;;;;4999803;28;20190;-91
2020/12/12 07:55:44;;;;;;;10.70;9.60;;;5.30;96.30;;;;;;4989242;28;20215;-90
2020/12/12 07:58:17;;;;;;;13.83;12.63;;;5.30;96.70;;;;;;4986732;28;20673;-91
2020/12/12 08:00:43;;;;;;;10.63;9.73;;;5.30;97.10;;;;;;4986072;28;20225;-92
2020/12/12 08:03:09;;;;;;;11.53;10.50;;;5.30;97.10;;;;;;4989189;28;20206;-92
2020/12/12 08:05:35;;;;;;;10.87;9.77;;;5.30;96.90;;;;;;4992556;28;20233;-92
2020/12/12 08:08:10;;;;;;;11.00;10.00;;;5.20;98.80;;;;;;5005363;28;20681;-91
2020/12/12 08:10:36;;;;;;;9.67;8.80;;;5.40;97.30;;;;;;4987063;28;20237;-90
2020/12/12 08:13:02;;;;;;;9.97;9.03;;;5.40;96.90;;;;;;4986584;28;20631;-90
2020/12/12 08:15:51;;;;;;;11.67;10.50;;;5.40;97.40;;;;;;4986580;28;20171;-90
2020/12/12 08:18:14;;;;;;;10.27;9.27;;;5.30;98.30;;;;;;5003391;28;20194;-89
2020/12/12 08:20:42;;;;;;;11.53;9.10;;;5.40;97.60;;;;;;5006266;28;20213;-92
2020/12/12 08:23:14;;;;;;;10.30;9.40;;;5.50;97.30;;;;;;4990496;28;20253;-90
2020/12/12 08:25:41;;;;;;;11.53;9.67;;;5.40;97.20;;;;;;5021434;28;20186;-91
2020/12/12 08:28:08;;;;;;;10.40;9.40;;;5.40;98.30;;;;;;4995463;28;20234;-91
2020/12/12 08:30:34;;;;;;;10.17;9.17;;;5.40;97.90;;;;;;4969117;28;20258;-91
2020/12/12 08:33:10;;;;;;;11.50;9.93;;;5.40;97.70;;;;;;5001536;28;20236;-90
2020/12/12 08:35:36;;;;;;;11.33;10.27;;;5.40;97.80;;;;;;5010649;28;20201;-90
2020/12/12 08:38:06;;;;;;;10.83;9.90;;;5.50;97.90;;;;;;5020998;28;20201;-90
2020/12/12 08:40:50;;;;;;;10.90;9.93;;;5.60;98.00;;;;;;5021343;28;20174;-90
2020/12/12 08:43:17;;;;;;;10.00;9.07;;;5.60;98.40;;;;;;5021509;28;20216;-90
2020/12/12 08:45:54;;;;;;;11.73;10.53;;;5.60;99.10;;;;;;5016457;28;20186;-91
2020/12/12 08:48:20;;;;;;;12.13;11.03;;;5.70;98.90;;;;;;5000570;28;20256;-90
2020/12/12 08:50:47;;;;;;;12.17;10.93;;;5.70;99.90;;;;;;4977123;28;20186;-90
2020/12/12 08:53:24;;;;;;;11.40;10.40;;;5.80;99.90;;;;;;5015099;28;20193;-90
2020/12/12 08:56:10;;;;;;;11.77;10.67;;;5.70;99.90;;;;;;5005572;28;20182;-91
2020/12/12 08:58:38;;;;;;;11.10;10.00;;;5.80;99.90;;;;;;5002510;28;20183;-91
2020/12/12 09:01:28;;;;;;;12.07;10.93;;;5.90;99.90;;;;;;5005348;28;20225;-91
2020/12/12 09:04:04;;;;;;;10.43;9.43;;;5.90;99.90;;;;;;5006459;28;20198;-91
2020/12/12 09:06:46;;;;;;;11.60;10.20;;;5.80;99.90;;;;;;5006953;28;20174;-92
2020/12/12 09:09:29;;;;;;;11.20;10.03;;;6.00;99.90;;;;;;5005890;28;20236;-91
2020/12/12 09:12:05;;;;;;;10.67;9.57;;;5.90;99.90;;;;;;5003284;28;20285;-90
2020/12/12 09:14:36;;;;;;;8.53;7.73;;;5.90;99.90;;;;;;5001345;28;20533;-89
2020/12/12 09:17:08;;;;;;;9.80;8.83;;;6.10;99.90;;;;;;5005384;28;20175;-90
2020/12/12 09:19:33;;;;;;;5.83;5.33;;;6.20;99.90;;;;;;5005889;28;20210;-91
2020/12/12 09:21:59;;;;;;;4.30;3.97;;;6.40;99.90;;;;;;5007538;28;20222;-90
2020/12/12 09:24:26;;;;;;;5.67;3.27;;;6.50;99.90;;;;;;5009135;28;20223;-90
2020/12/12 09:26:55;;;;;;;4.87;3.50;;;6.40;99.90;;;;;;5007914;28;20186;-91
2020/12/12 09:29:21;;;;;;;3.23;2.50;;;6.40;99.90;;;;;;5008236;28;20214;-91
2020/12/12 09:31:49;;;;;;;3.00;2.70;;;6.40;99.90;;;;;;5018749;28;20194;-88
2020/12/12 09:34:15;;;;;;;3.47;2.53;;;6.40;99.90;;;;;;5016183;28;20182;-91
2020/12/12 09:36:42;;;;;;;2.70;2.17;;;6.50;99.90;;;;;;4998060;28;20203;-91
2020/12/12 09:39:07;;;;;;;2.33;2.13;;;6.50;99.90;;;;;;5006694;28;20170;-88
2020/12/12 09:41:33;;;;;;;2.63;2.40;;;6.60;99.90;;;;;;5013272;28;20198;-88
2020/12/12 09:43:59;;;;;;;3.47;2.10;;;6.60;99.90;;;;;;4989788;28;20191;-86
2020/12/12 09:46:25;;;;;;;2.43;2.23;;;6.80;99.90;;;;;;4993882;28;20203;-93
2020/12/12 09:48:51;;;;;;;2.93;2.63;;;6.70;99.90;;;;;;4989269;28;20211;-93
2020/12/12 09:51:17;;;;;;;2.60;2.40;;;6.60;99.90;;;;;;4990520;28;20213;-87
2020/12/12 09:53:44;;;;;;;2.33;2.10;;;6.70;99.90;;;;;;4998231;28;20182;-86
2020/12/12 09:56:16;;;;;;;2.93;2.47;;;6.70;99.90;;;;;;5014538;28;20225;-93
2020/12/12 09:58:45;;;;;;;3.00;2.57;;;6.70;99.90;;;;;;5023799;28;20190;-91
2020/12/12 10:01:12;;;;;;;2.60;2.40;;;6.70;99.90;;;;;;4993959;28;20218;-94
2020/12/12 10:03:37;;;;;;;2.90;2.40;;;6.70;99.90;;;;;;5008913;28;20186;-93
2020/12/12 10:06:06;;;;;;;2.30;2.10;;;6.80;99.90;;;;;;4989265;28;20189;-94
2020/12/12 10:08:32;;;;;;;2.77;2.57;;;6.80;99.90;;;;;;5026100;28;20217;-94
2020/12/12 10:10:57;;;;;;;2.50;2.10;;;6.80;99.90;;;;;;5008590;28;20182;-93
2020/12/12 10:13:23;;;;;;;3.83;2.40;;;6.80;99.90;;;;;;5004088;28;20551;-93
2020/12/12 10:15:49;;;;;;;2.63;2.43;;;7.00;99.90;;;;;;4986607;28;20210;-93
2020/12/12 10:18:15;;;;;;;3.20;2.30;;;6.90;99.90;;;;;;4995991;28;20197;-93
2020/12/12 10:20:41;;;;;;;3.60;2.50;;;7.00;99.90;;;;;;5007771;28;20191;-93
2020/12/12 10:23:08;;;;;;;3.17;2.87;;;7.00;99.90;;;;;;4988025;28;20190;-92
2020/12/12 10:25:34;;;;;;;2.87;2.60;;;6.90;99.90;;;;;;4990753;28;20183;-94
2020/12/12 10:27:59;;;;;;;3.07;2.67;;;7.00;99.90;;;;;;4998289;28;20210;-91
2020/12/12 10:30:25;;;;;;;3.13;2.83;;;7.00;99.90;;;;;;5018218;28;20698;-91
2020/12/12 10:32:51;;;;;;;2.57;2.37;;;7.20;99.90;;;;;;4988837;28;20203;-93
2020/12/12 10:35:17;;;;;;;3.10;2.53;;;7.10;99.90;;;;;;4989146;28;20183;-93
2020/12/12 10:37:43;;;;;;;2.70;2.50;;;6.90;99.90;;;;;;4992312;28;20199;-93
2020/12/12 10:40:31;;;;;;;3.47;2.90;;;7.00;99.90;;;;;;4987361;28;20206;-92
2020/12/12 10:42:57;;;;;;;2.80;2.17;;;7.00;99.90;;;;;;4996864;28;20207;-93
2020/12/12 10:45:23;;;;;;;3.00;2.47;;;7.00;99.90;;;;;;5000313;28;20190;-93
2020/12/12 10:47:49;;;;;;;2.97;2.47;;;7.00;99.90;;;;;;5005194;28;20217;-92
2020/12/12 10:50:15;;;;;;;3.07;2.67;;;7.10;99.90;;;;;;5005723;28;20178;-93
2020/12/12 10:52:41;;;;;;;3.97;2.70;;;7.00;99.90;;;;;;5023648;28;20262;-94
2020/12/12 10:55:07;;;;;;;4.10;3.43;;;7.10;99.90;;;;;;5023200;28;20600;-93
2020/12/12 10:57:33;;;;;;;2.53;2.33;;;7.20;99.90;;;;;;5002593;28;20185;-92
2020/12/12 11:00:01;;;;;;;2.50;2.20;;;7.40;99.90;;;;;;4990382;28;20554;-92
2020/12/12 11:02:32;;;;;;;5.27;2.40;;;7.30;99.90;;;;;;5020145;28;20289;-92
2020/12/12 11:04:58;;;;;;;2.33;2.17;;;7.30;99.90;;;;;;5006547;28;20332;-93
2020/12/12 11:07:23;;;;;;;2.63;2.43;;;7.40;99.90;;;;;;4983528;28;20183;-93
2020/12/12 11:09:49;;;;;;;2.90;2.33;;;7.30;99.90;;;;;;4998617;28;20179;-92
2020/12/12 11:12:15;;;;;;;3.10;2.80;;;7.30;99.90;;;;;;5010282;28;20218;-93
2020/12/12 11:14:42;;;;;;;4.47;3.00;;;7.30;99.90;;;;;;5001818;28;20186;-92
2020/12/12 11:17:08;;;;;;;3.53;3.07;;;7.30;99.90;;;;;;5006291;28;20181;-93
2020/12/12 11:19:34;;;;;;;4.73;2.80;;;7.20;99.90;;;;;;5007355;28;20214;-91
2020/12/12 11:22:00;;;;;;;3.87;3.57;;;7.20;99.90;;;;;;5006248;28;20289;-92
2020/12/12 11:24:25;;;;;;;4.37;3.80;;;7.20;99.90;;;;;;5002064;28;20271;-93
2020/12/12 11:26:52;;;;;;;5.80;3.73;;;7.00;99.90;;;;;;4997135;28;20593;-92
2020/12/12 11:29:18;;;;;;;5.10;3.60;;;7.20;99.90;;;;;;5006958;28;20214;-93
2020/12/12 11:31:48;;;;;;;5.40;4.00;;;7.10;99.90;;;;;;4988827;28;20206;-92
2020/12/12 11:42:19;;;;;;;5.03;3.30;;;7.40;99.90;;;;;;5007890;28;20219;-92
2020/12/12 11:45:12;;;;;;;4.60;3.10;;;7.40;99.90;;;;;;4993020;28;20190;-93
2020/12/12 11:47:38;;;;;;;3.53;3.23;;;7.30;99.90;;;;;;5006201;28;20170;-93
2020/12/12 11:50:04;;;;;;;4.53;3.47;;;7.30;99.90;;;;;;5004793;28;20197;-92
2020/12/12 11:52:35;;;;;;;3.87;3.57;;;7.20;99.90;;;;;;5006301;28;20212;-94
2020/12/12 11:55:00;;;;;;;4.57;3.90;;;7.30;99.90;;;;;;4992349;28;20194;-93
2020/12/12 11:57:26;;;;;;;4.73;4.20;;;7.20;99.90;;;;;;5006540;28;20186;-92
2020/12/12 11:59:53;;;;;;;5.27;4.40;;;7.30;99.90;;;;;;5009727;28;20233;-92
2020/12/12 12:02:19;;;;;;;6.93;4.03;;;7.50;99.90;;;;;;5008038;28;20708;-92
2020/12/12 12:04:45;;;;;;;4.63;4.20;;;7.50;99.90;;;;;;4990842;28;20182;-93
2020/12/12 12:07:11;;;;;;;5.87;4.03;;;7.60;99.90;;;;;;4990834;28;20213;-93
2020/12/12 12:09:46;;;;;;;5.57;4.83;;;7.60;99.90;;;;;;5026813;28;20195;-88
2020/12/12 12:12:12;;;;;;;5.47;4.47;;;7.50;99.90;;;;;;5005522;28;20221;-93
2020/12/12 12:14:38;;;;;;;4.07;3.77;;;7.40;99.90;;;;;;5009733;28;20198;-89
2020/12/12 12:17:04;;;;;;;5.93;4.43;;;7.60;99.90;;;;;;4991317;28;20269;-92
2020/12/12 12:19:29;;;;;;;4.57;4.17;;;7.60;99.90;;;;;;5048879;28;20198;-89
2020/12/12 12:21:55;;;;;;;4.77;4.37;;;7.40;99.90;;;;;;5044650;28;20220;-92
2020/12/12 12:24:21;;;;;;;5.13;4.30;;;7.40;99.90;;;;;;4986221;28;20193;-92
2020/12/12 12:26:48;;;;;;;6.07;4.50;;;7.40;99.90;;;;;;5009636;28;20189;-92
2020/12/12 12:29:16;;;;;;;4.33;3.90;;;7.60;99.90;;;;;;5022461;28;20237;-91
2020/12/12 12:31:43;;;;;;;4.40;4.00;;;7.60;99.90;;;;;;5022448;28;20664;-91
2020/12/12 12:34:10;;;;;;;5.40;4.17;;;7.60;99.90;;;;;;5037051;28;20177;-93
2020/12/12 12:36:38;;;;;;;4.83;4.17;;;7.60;99.90;;;;;;5027656;28;20230;-92
2020/12/12 12:39:05;;;;;;;5.67;3.90;;;7.60;99.90;;;;;;5022009;28;20194;-91
2020/12/12 12:41:31;;;;;;;7.37;4.53;;;7.60;99.90;;;;;;5024399;28;20206;-91
2020/12/12 12:44:01;;;;;;;4.87;4.00;;;7.60;99.90;;;;;;5023656;28;20216;-90
2020/12/12 12:46:31;;;;;;;5.07;4.10;;;7.60;99.90;;;;;;5027706;28;20197;-91
2020/12/12 12:48:56;;;;;;;5.23;4.70;;;7.50;99.90;;;;;;5023157;28;20218;-92
2020/12/12 12:51:22;;;;;;;5.10;4.60;;;7.50;99.90;;;;;;5027506;28;20241;-93
2020/12/12 12:53:48;;;;;;;4.97;4.00;;;7.50;99.90;;;;;;5023133;28;20212;-92
2020/12/12 12:56:19;;;;;;;6.10;4.20;;;7.40;99.90;;;;;;5020787;28;20213;-92
2020/12/12 12:58:45;;;;;;;4.70;4.30;;;7.50;99.90;;;;;;5026103;28;20189;-91